createdAt,value
2017-11-08T00:02:15.859Z,27.17
2017-11-08T00:04:44.210Z,29.47
2017-11-08T00:07:11.797Z,29.10
2017-11-08T00:09:40.192Z,26.30
2017-11-08T00:12:07.842Z,27.33
2017-11-08T00:14:36.189Z,26.27
2017-11-08T00:17:03.779Z,29.00
2017-11-08T00:19:32.174Z,24.97
2017-11-08T00:22:02.414Z,25.30
2017-11-08T00:24:30.869Z,27.07
2017-11-08T00:26:59.261Z,26.27
2017-11-08T00:29:26.876Z,24.90
2017-11-08T00:31:54.457Z,26.80
2017-11-08T00:34:22.824Z,27.27
2017-11-08T00:36:50.433Z,27.13
2017-11-08T00:39:18.007Z,26.20
2017-11-08T00:41:45.611Z,24.67
2017-11-08T00:44:13.224Z,26.50
2017-11-08T00:46:40.805Z,30.43
2017-11-08T00:49:08.414Z,26.60
2017-11-08T00:51:36.006Z,24.67
2017-11-08T00:54:03.659Z,27.60
2017-11-08T00:56:39.210Z,27.17
2017-11-08T00:59:06.847Z,28.13
2017-11-08T01:01:34.413Z,28.03
2017-11-08T01:04:01.983Z,26.37
2017-11-08T01:06:29.622Z,27.00
2017-11-08T01:08:57.214Z,25.50
2017-11-08T01:11:24.811Z,26.10
2017-11-08T01:13:52.392Z,26.40
2017-11-08T01:16:20.722Z,24.40
2017-11-08T01:18:48.377Z,24.90
2017-11-08T01:21:15.942Z,25.10
2017-11-08T01:23:43.542Z,24.33
2017-11-08T01:26:11.902Z,25.37
2017-11-08T01:28:39.562Z,25.77
2017-11-08T01:31:07.141Z,27.20
2017-11-08T01:33:35.499Z,24.77
2017-11-08T01:36:03.104Z,27.50
2017-11-08T01:38:30.774Z,25.23
2017-11-08T01:41:03.985Z,24.93
2017-11-08T01:43:31.566Z,25.00
2017-11-08T01:46:00.417Z,28.00
2017-11-08T01:48:28.050Z,30.63
2017-11-08T01:50:59.190Z,31.33
2017-11-08T01:53:28.876Z,29.93
2017-11-08T01:55:56.448Z,28.57
2017-11-08T01:58:24.822Z,27.80
2017-11-08T02:00:53.214Z,29.00
2017-11-08T02:03:21.570Z,27.97
2017-11-08T02:05:49.149Z,25.20
2017-11-08T02:08:17.487Z,27.67
2017-11-08T02:10:45.384Z,29.27
2017-11-08T02:13:13.731Z,26.90
2017-11-08T02:15:41.352Z,29.53
2017-11-08T02:18:14.479Z,27.63
2017-11-08T02:20:42.339Z,28.37
2017-11-08T02:23:09.916Z,27.80
2017-11-08T02:25:37.491Z,27.30
2017-11-08T02:28:05.070Z,27.70
2017-11-08T02:30:33.400Z,30.10
2017-11-08T02:33:01.034Z,28.40
2017-11-08T02:35:28.868Z,28.50
2017-11-08T02:37:57.290Z,28.70
2017-11-08T02:40:24.952Z,30.57
2017-11-08T02:42:55.113Z,33.00
2017-11-08T02:45:29.291Z,33.00
2017-11-08T02:47:56.868Z,29.60
2017-11-08T02:50:24.491Z,27.33
2017-11-08T02:52:52.104Z,27.83
2017-11-08T02:55:19.680Z,26.63
2017-11-08T02:57:48.046Z,29.20
2017-11-08T03:00:15.662Z,28.77
2017-11-08T03:02:48.826Z,28.50
2017-11-08T03:05:18.176Z,26.77
2017-11-08T03:07:45.750Z,27.10
2017-11-08T03:10:13.360Z,26.27
2017-11-08T03:12:40.930Z,29.17
2017-11-08T03:15:08.538Z,26.73
2017-11-08T03:17:37.009Z,26.27
2017-11-08T03:20:04.663Z,29.40
2017-11-08T03:22:32.299Z,26.93
2017-11-08T03:24:59.879Z,26.43
2017-11-08T03:27:27.503Z,28.13
2017-11-08T03:29:55.082Z,27.10
2017-11-08T03:32:23.053Z,25.80
2017-11-08T03:34:50.649Z,26.50
2017-11-08T03:37:18.998Z,26.23
2017-11-08T03:39:46.586Z,26.27
2017-11-08T03:42:14.158Z,23.73
2017-11-08T03:44:42.528Z,25.57
2017-11-08T03:47:10.147Z,27.67
2017-11-08T03:49:37.739Z,26.60
2017-11-08T03:52:05.310Z,26.30
2017-11-08T03:54:33.645Z,27.13
2017-11-08T03:57:01.306Z,27.97
2017-11-08T03:59:28.906Z,26.67
2017-11-08T04:01:57.270Z,27.37
2017-11-08T04:04:24.873Z,29.10
2017-11-08T04:06:52.509Z,30.53
2017-11-08T04:09:20.880Z,28.70
2017-11-08T04:11:49.241Z,29.00
2017-11-08T04:14:18.870Z,29.67
2017-11-08T04:16:52.214Z,27.37
2017-11-08T04:19:20.283Z,29.33
2017-11-08T04:21:50.388Z,28.07
2017-11-08T04:24:23.070Z,29.03
2017-11-08T04:26:51.637Z,27.30
2017-11-08T04:29:19.246Z,25.30
2017-11-08T04:31:46.850Z,31.50
2017-11-08T04:34:14.428Z,30.13
2017-11-08T04:36:42.023Z,31.47
2017-11-08T04:39:09.613Z,28.90
2017-11-08T04:41:37.962Z,29.30
2017-11-08T04:44:05.549Z,28.37
2017-11-08T04:46:33.867Z,29.87
2017-11-08T04:49:01.485Z,30.40
2017-11-08T04:51:29.834Z,28.53
2017-11-08T04:53:58.234Z,31.27
2017-11-08T04:56:25.816Z,29.87
2017-11-08T04:58:53.397Z,30.73
2017-11-08T05:01:21.013Z,30.97
2017-11-08T05:03:48.605Z,29.33
2017-11-08T05:06:16.266Z,30.10
2017-11-08T05:08:43.865Z,31.03
2017-11-08T05:11:11.462Z,33.50
2017-11-08T05:13:39.825Z,30.27
2017-11-08T05:16:07.434Z,30.10
2017-11-08T05:18:35.344Z,32.10
2017-11-08T05:21:02.989Z,29.93
2017-11-08T05:23:30.589Z,32.33
2017-11-08T05:25:58.947Z,31.40
2017-11-08T05:28:26.978Z,32.80
2017-11-08T05:30:54.576Z,29.63
2017-11-08T05:33:22.159Z,32.33
2017-11-08T05:35:50.530Z,32.03
2017-11-08T05:38:18.915Z,30.77
2017-11-08T05:40:46.529Z,34.10
2017-11-08T05:43:14.158Z,31.33
2017-11-08T05:45:41.750Z,29.60
2017-11-08T05:48:09.377Z,33.97
2017-11-08T05:50:36.967Z,31.67
2017-11-08T05:53:04.570Z,31.43
2017-11-08T05:55:32.909Z,32.37
2017-11-08T05:58:00.518Z,32.50
2017-11-08T06:00:28.910Z,33.80
2017-11-08T06:02:56.488Z,33.50
2017-11-08T06:05:24.136Z,33.30
2017-11-08T06:07:51.894Z,31.20
2017-11-08T06:10:19.609Z,31.00
2017-11-08T06:12:47.226Z,32.77
2017-11-08T06:15:14.806Z,30.80
2017-11-08T06:17:42.415Z,29.17
2017-11-08T06:20:10.773Z,32.07
2017-11-08T06:22:38.389Z,27.73
2017-11-08T06:25:05.974Z,28.90
2017-11-08T06:27:33.566Z,27.63
2017-11-08T06:30:01.931Z,26.97
2017-11-08T06:32:29.507Z,28.27
2017-11-08T06:34:57.922Z,27.97
2017-11-08T06:37:25.518Z,26.87
2017-11-08T06:39:53.124Z,26.00
2017-11-08T06:42:20.738Z,24.80
2017-11-08T06:44:48.342Z,25.90
2017-11-08T06:47:16.167Z,25.60
2017-11-08T06:49:44.517Z,25.30
2017-11-08T06:52:12.222Z,26.90
2017-11-08T06:54:39.790Z,25.90
2017-11-08T06:57:08.184Z,25.50
2017-11-08T06:59:36.546Z,25.20
2017-11-08T07:02:04.920Z,29.60
2017-11-08T07:04:33.303Z,27.27
2017-11-08T07:07:01.655Z,28.33
2017-11-08T07:09:29.246Z,26.63
2017-11-08T07:11:57.602Z,28.50
2017-11-08T07:14:25.179Z,27.23
2017-11-08T07:16:53.838Z,37.70
2017-11-08T07:19:21.397Z,29.70
2017-11-08T07:21:49.030Z,35.10
2017-11-08T07:24:16.601Z,36.73
2017-11-08T07:26:44.220Z,27.43
2017-11-08T07:29:11.824Z,28.20
2017-11-08T07:31:39.397Z,29.50
2017-11-08T07:34:06.985Z,29.37
2017-11-08T07:36:34.560Z,30.27
2017-11-08T07:39:02.427Z,34.47
2017-11-08T07:41:30.018Z,36.60
2017-11-08T07:43:57.639Z,53.23
2017-11-08T07:46:25.992Z,48.40
2017-11-08T07:48:53.571Z,38.40
2017-11-08T07:51:21.981Z,28.50
2017-11-08T07:53:49.682Z,32.83
2017-11-08T07:56:17.302Z,24.07
2017-11-08T07:58:44.879Z,27.10
2017-11-08T08:01:12.482Z,27.67
2017-11-08T08:03:40.849Z,25.20
2017-11-08T08:06:08.437Z,23.63
2017-11-08T08:08:36.022Z,29.77
2017-11-08T08:11:11.183Z,51.30
2017-11-08T08:13:39.543Z,28.23
2017-11-08T08:16:07.123Z,55.60
2017-11-08T08:18:34.696Z,46.77
2017-11-08T08:21:02.308Z,34.27
2017-11-08T08:23:30.112Z,27.50
2017-11-08T08:26:00.635Z,23.07
2017-11-08T08:28:28.457Z,22.80
2017-11-08T08:30:56.106Z,22.40
2017-11-08T08:33:24.455Z,23.33
2017-11-08T08:35:52.040Z,23.83
2017-11-08T08:38:19.686Z,22.80
2017-11-08T08:40:47.295Z,22.80
2017-11-08T08:43:14.967Z,20.43
2017-11-08T08:45:42.547Z,22.30
2017-11-08T08:48:10.182Z,22.03
2017-11-08T08:50:37.811Z,21.43
2017-11-08T08:53:06.170Z,21.07
2017-11-08T08:55:33.806Z,19.70
2017-11-08T08:58:01.383Z,21.30
2017-11-08T09:00:29.012Z,22.70
2017-11-08T09:02:56.612Z,21.43
2017-11-08T09:05:24.999Z,20.33
2017-11-08T09:07:53.579Z,20.20
2017-11-08T09:10:21.931Z,20.37
2017-11-08T09:12:49.790Z,19.93
2017-11-08T09:15:17.375Z,19.43
2017-11-08T09:17:45.722Z,19.77
2017-11-08T09:20:13.333Z,19.77
2017-11-08T09:22:41.778Z,20.67
2017-11-08T09:25:10.261Z,20.10
2017-11-08T09:27:37.850Z,18.00
2017-11-08T09:30:08.708Z,17.10
2017-11-08T09:32:36.280Z,18.17
2017-11-08T09:35:09.625Z,18.27
2017-11-08T09:37:37.217Z,18.03
2017-11-08T09:40:04.782Z,18.10
2017-11-08T09:42:36.249Z,16.57
2017-11-08T09:45:03.832Z,19.53
2017-11-08T09:47:31.783Z,17.47
2017-11-08T09:50:01.260Z,19.40
2017-11-08T09:52:28.860Z,20.03
2017-11-08T09:54:56.459Z,20.30
2017-11-08T09:57:25.655Z,21.37
2017-11-08T09:59:53.277Z,22.77
2017-11-08T10:02:20.872Z,24.20
2017-11-08T10:04:49.231Z,21.90
2017-11-08T10:07:16.807Z,23.40
2017-11-08T10:09:51.013Z,24.33
2017-11-08T10:12:18.562Z,26.03
2017-11-08T10:14:46.945Z,23.70
2017-11-08T10:17:15.298Z,23.77
2017-11-08T10:19:42.883Z,23.60
2017-11-08T10:22:10.546Z,25.40
2017-11-08T10:24:42.806Z,27.53
2017-11-08T10:27:10.401Z,25.63
2017-11-08T10:29:37.971Z,27.40
2017-11-08T10:32:05.588Z,25.93
2017-11-08T10:34:33.177Z,24.70
2017-11-08T10:37:00.799Z,27.97
2017-11-08T10:39:28.380Z,24.27
2017-11-08T10:41:56.739Z,26.80
2017-11-08T10:44:24.321Z,23.50
2017-11-08T10:46:51.933Z,23.13
2017-11-08T10:49:21.378Z,25.40
2017-11-08T10:51:49.397Z,22.87
2017-11-08T10:54:16.999Z,23.53
2017-11-08T10:56:44.588Z,22.70
2017-11-08T10:59:17.902Z,24.40
2017-11-08T11:01:46.230Z,23.53
2017-11-08T11:04:13.819Z,24.07
2017-11-08T11:06:41.412Z,22.03
2017-11-08T11:09:09.034Z,23.73
2017-11-08T11:11:36.911Z,21.57
2017-11-08T11:14:13.177Z,23.90
2017-11-08T11:16:40.839Z,24.80
2017-11-08T11:19:13.371Z,25.93
2017-11-08T11:21:40.967Z,23.77
2017-11-08T11:24:13.348Z,25.07
2017-11-08T11:26:41.849Z,27.07
2017-11-08T11:29:10.219Z,28.03
2017-11-08T11:31:37.802Z,24.17
2017-11-08T11:34:06.225Z,25.13
2017-11-08T11:36:33.795Z,23.20
2017-11-08T11:39:01.374Z,25.33
2017-11-08T11:41:28.956Z,25.47
2017-11-08T11:43:56.548Z,26.20
2017-11-08T11:46:24.106Z,24.40
2017-11-08T11:48:53.518Z,25.70
2017-11-08T11:51:25.930Z,24.00
2017-11-08T11:53:53.507Z,23.20
2017-11-08T11:56:21.122Z,23.40
2017-11-08T11:58:48.704Z,24.33
2017-11-08T12:01:16.327Z,24.37
2017-11-08T12:03:43.952Z,24.80
2017-11-08T12:06:11.511Z,23.27
2017-11-08T12:08:39.874Z,23.30
2017-11-08T12:11:07.488Z,25.07
2017-11-08T12:13:35.419Z,23.40
2017-11-08T12:16:02.999Z,22.73
2017-11-08T12:18:31.349Z,20.83
2017-11-08T12:20:58.949Z,25.27
2017-11-08T12:23:26.566Z,23.63
2017-11-08T12:25:54.168Z,22.40
2017-11-08T12:28:23.668Z,21.83
2017-11-08T12:30:52.000Z,20.03
2017-11-08T12:33:19.638Z,20.73
2017-11-08T12:35:48.186Z,21.80
2017-11-08T12:38:16.643Z,21.00
2017-11-08T12:40:44.260Z,19.57
2017-11-08T12:43:13.573Z,21.50
2017-11-08T12:45:41.155Z,23.60
2017-11-08T12:48:08.742Z,21.67
2017-11-08T12:50:36.336Z,22.60
2017-11-08T12:53:03.911Z,22.03
2017-11-08T12:55:31.484Z,24.60
2017-11-08T12:57:59.580Z,22.60
2017-11-08T13:00:27.236Z,22.73
2017-11-08T13:02:54.806Z,23.90
2017-11-08T13:05:28.996Z,23.60
2017-11-08T13:07:56.628Z,23.47
2017-11-08T13:10:25.104Z,22.00
2017-11-08T13:12:52.627Z,23.10
2017-11-08T13:15:20.983Z,23.40
2017-11-08T13:17:49.355Z,20.27
2017-11-08T13:20:16.978Z,21.07
2017-11-08T13:22:44.567Z,20.70
2017-11-08T13:25:12.143Z,21.60
2017-11-08T13:27:39.878Z,21.57
2017-11-08T13:30:07.452Z,21.80
2017-11-08T13:32:35.098Z,19.70
2017-11-08T13:35:02.699Z,21.50
2017-11-08T13:37:30.266Z,22.57
2017-11-08T13:39:57.937Z,21.93
2017-11-08T13:42:26.290Z,20.87
2017-11-08T13:44:53.910Z,21.77
2017-11-08T13:47:21.498Z,20.00
2017-11-08T13:49:49.093Z,18.57
2017-11-08T13:52:17.457Z,21.77
2017-11-08T13:54:45.900Z,22.20
2017-11-08T13:57:13.512Z,22.03
2017-11-08T13:59:41.885Z,20.97
2017-11-08T14:02:10.528Z,22.87
2017-11-08T14:04:38.095Z,23.40
2017-11-08T14:07:05.723Z,21.60
2017-11-08T14:09:33.326Z,25.27
2017-11-08T14:12:00.905Z,24.80
2017-11-08T14:14:29.314Z,23.43
2017-11-08T14:16:56.883Z,22.43
2017-11-08T14:19:24.497Z,23.27
2017-11-08T14:21:52.101Z,23.03
2017-11-08T14:24:19.692Z,25.57
2017-11-08T14:26:47.354Z,25.50
2017-11-08T14:29:20.817Z,24.80
2017-11-08T14:31:48.439Z,25.90
2017-11-08T14:34:16.831Z,27.40
2017-11-08T14:36:45.076Z,28.13
2017-11-08T14:39:12.691Z,26.57
2017-11-08T14:41:54.896Z,24.83
2017-11-08T14:44:22.440Z,25.33
2017-11-08T14:46:50.054Z,27.40
2017-11-08T14:49:17.695Z,27.57
2017-11-08T14:51:45.285Z,25.40
2017-11-08T14:54:13.692Z,26.80
2017-11-08T14:56:42.074Z,27.90
2017-11-08T14:59:10.858Z,23.40
2017-11-08T15:01:39.398Z,25.40
2017-11-08T15:04:06.989Z,26.27
2017-11-08T15:06:35.368Z,26.77
2017-11-08T15:09:03.708Z,24.80
2017-11-08T15:11:35.710Z,25.03
2017-11-08T15:14:04.964Z,25.50
2017-11-08T15:16:32.592Z,25.50
2017-11-08T15:19:00.188Z,26.77
2017-11-08T15:21:27.807Z,28.20
2017-11-08T15:23:55.424Z,28.80
2017-11-08T15:26:23.006Z,27.20
2017-11-08T15:28:50.907Z,26.93
2017-11-08T15:31:18.477Z,23.30
2017-11-08T15:33:46.056Z,21.80
2017-11-08T15:36:13.673Z,24.00
2017-11-08T15:38:41.256Z,26.27
2017-11-08T15:41:08.878Z,26.50
2017-11-08T15:43:37.241Z,25.77
2017-11-08T15:46:04.867Z,26.03
2017-11-08T15:48:32.451Z,25.97
2017-11-08T15:51:00.007Z,46.80
2017-11-08T15:53:27.628Z,31.47
2017-11-08T15:55:58.009Z,26.10
2017-11-08T15:58:26.358Z,33.30
2017-11-08T16:00:53.968Z,28.80
2017-11-08T16:03:22.844Z,26.83
2017-11-08T16:05:50.430Z,30.10
2017-11-08T16:08:18.035Z,33.27
2017-11-08T16:10:45.663Z,30.90
2017-11-08T16:13:13.230Z,30.90
2017-11-08T16:15:40.842Z,27.77
2017-11-08T16:18:09.188Z,30.70
2017-11-08T16:20:36.809Z,29.30
2017-11-08T16:23:04.423Z,29.77
2017-11-08T16:25:32.039Z,27.27
2017-11-08T16:27:59.663Z,28.40
2017-11-08T16:30:28.192Z,31.17
2017-11-08T16:32:55.796Z,25.47
2017-11-08T16:35:23.380Z,28.03
2017-11-08T16:37:51.723Z,26.67
2017-11-08T16:40:19.383Z,34.80
2017-11-08T16:42:47.013Z,33.17
2017-11-08T16:45:14.631Z,29.67
2017-11-08T16:47:42.295Z,26.30
2017-11-08T16:50:11.113Z,25.77
2017-11-08T16:52:38.905Z,26.97
2017-11-08T16:55:06.519Z,26.80
2017-11-08T16:57:34.134Z,27.37
2017-11-08T17:00:01.858Z,25.60
2017-11-08T17:02:29.459Z,26.50
2017-11-08T17:04:57.055Z,26.93
2017-11-08T17:07:25.415Z,25.60
2017-11-08T17:09:53.176Z,24.40
2017-11-08T17:12:20.775Z,26.70
2017-11-08T17:14:48.384Z,27.30
2017-11-08T17:17:15.987Z,24.97
2017-11-08T17:19:43.660Z,25.30
2017-11-08T17:22:11.297Z,25.33
2017-11-08T17:24:38.911Z,27.87
2017-11-08T17:27:06.636Z,26.30
2017-11-08T17:29:34.207Z,27.03
2017-11-08T17:32:01.864Z,30.73
2017-11-08T17:34:30.229Z,27.97
2017-11-08T17:36:57.963Z,28.30
2017-11-08T17:39:25.885Z,27.67
2017-11-08T17:41:53.526Z,29.67
2017-11-08T17:44:21.239Z,28.33
2017-11-08T17:46:48.871Z,29.07
2017-11-08T17:49:16.514Z,33.77
2017-11-08T17:51:44.129Z,31.43
2017-11-08T17:54:12.516Z,41.07
2017-11-08T17:56:40.898Z,34.30
2017-11-08T17:59:08.521Z,35.50
2017-11-08T18:01:36.131Z,35.53
2017-11-08T18:04:03.803Z,36.27
2017-11-08T18:06:31.456Z,35.63
2017-11-08T18:08:59.060Z,34.47
2017-11-08T18:11:26.968Z,34.33
2017-11-08T18:13:55.408Z,33.97
2017-11-08T18:16:23.044Z,33.93
2017-11-08T18:18:50.672Z,34.27
2017-11-08T18:21:19.050Z,35.77
2017-11-08T18:23:46.812Z,38.23
2017-11-08T18:26:15.330Z,33.63
2017-11-08T18:28:43.005Z,32.27
2017-11-08T18:31:10.669Z,38.43
2017-11-08T18:33:38.341Z,36.27
2017-11-08T18:36:05.971Z,39.23
2017-11-08T18:38:33.723Z,39.57
2017-11-08T18:41:01.382Z,32.17
2017-11-08T18:43:29.028Z,32.40
2017-11-08T18:45:57.426Z,35.63
2017-11-08T18:48:25.065Z,39.93
2017-11-08T18:50:53.437Z,41.10
2017-11-08T18:53:21.824Z,40.57
2017-11-08T18:55:50.263Z,35.27
2017-11-08T18:58:17.909Z,35.30
2017-11-08T19:00:45.550Z,36.40
2017-11-08T19:03:15.037Z,36.10
2017-11-08T19:05:42.696Z,35.70
2017-11-08T19:08:11.136Z,37.00
2017-11-08T19:10:38.715Z,36.10
2017-11-08T19:13:06.405Z,39.60
2017-11-08T19:15:34.072Z,37.70
2017-11-08T19:18:01.706Z,37.80
2017-11-08T19:20:30.097Z,36.17
2017-11-08T19:22:57.731Z,38.83
2017-11-08T19:25:25.576Z,36.37
2017-11-08T19:27:53.490Z,34.57
2017-11-08T19:30:21.280Z,35.93
2017-11-08T19:32:48.902Z,36.90
2017-11-08T19:35:16.593Z,36.70
2017-11-08T19:37:44.259Z,35.27
2017-11-08T19:40:12.141Z,36.43
2017-11-08T19:42:39.792Z,36.00
2017-11-08T19:45:07.421Z,37.50
2017-11-08T19:47:36.869Z,41.73
2017-11-08T19:50:04.497Z,41.03
2017-11-08T19:52:32.577Z,42.77
2017-11-08T19:55:00.200Z,39.93
2017-11-08T19:57:27.849Z,37.57
2017-11-08T19:59:55.497Z,41.00
2017-11-08T20:02:23.164Z,36.43
2017-11-08T20:04:51.284Z,38.40
2017-11-08T20:07:19.013Z,38.77
2017-11-08T20:09:46.668Z,37.87
2017-11-08T20:12:14.331Z,43.90
2017-11-08T20:14:41.979Z,42.70
2017-11-08T20:17:09.891Z,40.30
2017-11-08T20:19:37.561Z,39.80
2017-11-08T20:22:05.202Z,42.93
2017-11-08T20:24:32.840Z,41.33
2017-11-08T20:27:00.481Z,39.47
2017-11-08T20:29:28.473Z,38.20
2017-11-08T20:31:56.079Z,36.97
2017-11-08T20:34:23.717Z,37.77
2017-11-08T20:36:52.212Z,37.80
2017-11-08T20:39:20.829Z,38.57
2017-11-08T20:41:49.154Z,37.53
2017-11-08T20:44:18.012Z,39.90
2017-11-08T20:46:45.728Z,36.00
2017-11-08T20:49:13.502Z,37.20
2017-11-08T20:51:42.184Z,36.73
2017-11-08T20:54:10.201Z,38.53
2017-11-08T20:56:37.911Z,36.83
2017-11-08T20:59:05.793Z,36.17
2017-11-08T21:01:33.484Z,36.27
2017-11-08T21:04:01.101Z,38.50
2017-11-08T21:06:29.084Z,36.40
2017-11-08T21:08:56.690Z,33.37
2017-11-08T21:11:24.356Z,37.50
2017-11-08T21:13:51.961Z,33.90
2017-11-08T21:16:19.565Z,36.80
2017-11-08T21:18:47.590Z,35.27
2017-11-08T21:21:15.395Z,36.70
2017-11-08T21:23:43.047Z,37.93
2017-11-08T21:26:10.662Z,36.80
2017-11-08T21:28:38.263Z,38.73
2017-11-08T21:31:06.355Z,38.13
2017-11-08T21:33:34.026Z,38.37
2017-11-08T21:36:01.613Z,37.17
2017-11-08T21:38:29.207Z,41.43
2017-11-08T21:40:56.844Z,39.00
2017-11-08T21:43:25.484Z,42.63
2017-11-08T21:45:53.082Z,40.03
2017-11-08T21:48:20.779Z,40.60
2017-11-08T21:50:48.417Z,42.17
2017-11-08T21:53:15.996Z,43.27
2017-11-08T21:55:43.880Z,42.23
2017-11-08T21:58:11.506Z,42.20
2017-11-08T22:00:39.167Z,39.90
2017-11-08T22:03:07.029Z,38.60
2017-11-08T22:05:35.495Z,41.90
2017-11-08T22:08:03.442Z,40.87
2017-11-08T22:10:31.936Z,41.10
2017-11-08T22:12:59.597Z,40.73
2017-11-08T22:15:29.506Z,41.73
2017-11-08T22:17:57.971Z,41.67
2017-11-08T22:20:25.710Z,40.80
2017-11-08T22:22:53.579Z,42.37
2017-11-08T22:25:21.356Z,38.30
2017-11-08T22:27:48.960Z,40.60
2017-11-08T22:30:16.653Z,42.70
2017-11-08T22:32:44.299Z,40.40
2017-11-08T22:35:12.190Z,39.77
2017-11-08T22:37:39.828Z,39.47
2017-11-08T22:40:07.487Z,41.43
2017-11-08T22:42:35.113Z,42.30
2017-11-08T22:45:03.531Z,41.97
2017-11-08T22:47:31.435Z,40.07
2017-11-08T22:49:59.035Z,39.23
2017-11-08T22:52:26.695Z,41.70
2017-11-08T22:54:54.336Z,39.63
2017-11-08T22:57:22.700Z,39.63
2017-11-08T22:59:50.677Z,38.80
2017-11-08T23:02:18.270Z,38.17
2017-11-08T23:04:45.891Z,42.93
2017-11-08T23:07:13.511Z,40.53
2017-11-08T23:09:41.105Z,39.60
2017-11-08T23:12:09.782Z,39.37
2017-11-08T23:14:37.675Z,36.97
2017-11-08T23:17:06.043Z,36.30
2017-11-08T23:19:33.671Z,35.37
2017-11-08T23:22:01.334Z,36.97
2017-11-08T23:24:29.400Z,38.43
2017-11-08T23:26:57.015Z,36.30
2017-11-08T23:29:25.376Z,38.03
2017-11-08T23:31:52.984Z,34.87
2017-11-08T23:34:20.588Z,37.70
2017-11-08T23:36:50.182Z,36.60
2017-11-08T23:39:17.797Z,35.70
2017-11-08T23:41:47.247Z,35.70
2017-11-08T23:44:15.315Z,33.27
2017-11-08T23:46:42.921Z,33.30
2017-11-08T23:49:10.510Z,36.80
2017-11-08T23:51:38.888Z,33.33
2017-11-08T23:54:06.465Z,33.07
2017-11-08T23:56:34.534Z,35.73
2017-11-08T23:59:17.006Z,33.77
